Milk River, Canada
Current Conditions -  °F | °C
As of 3:56 PM on Wednesday 22 Oct 2014 (Local Time) from KCTB Reporting Station
Clear Clear  
Wind Chill: 59°   Ceiling: Unl
Heat Index: 59°   Visibility: 10mi
Dew Point: 31°   Wind: 25mph
Humidity: 35%   Direction: 250°WSW
Pressure: 29.82"   Gusts: 32mph
Location:  49.15°N, 112.09°W
Report Text: KCTB 222156Z AUTO 25022G28KT 10SM CLR 15/M01 A2982 RMK AO2 PK WND 25035/2059 SLP093 T01501006
Loading
Personal Weather Stations






























Interactive Weather Map
Tropical Storm Tracking
New forecast layout! Learn more

10-Day Weather Forecast

Advertisements
Track Severe Weather on mobile